createdAt,value
2022-09-04T00:01:55.214Z,20.29
2022-09-04T00:04:07.920Z,20.26
2022-09-04T00:06:17.842Z,20.22
2022-09-04T00:08:31.637Z,20.21
2022-09-04T00:10:38.613Z,20.20
2022-09-04T00:12:49.001Z,20.18
2022-09-04T00:15:18.952Z,20.15
2022-09-04T00:17:33.839Z,20.11
2022-09-04T00:19:48.147Z,20.09
2022-09-04T00:21:58.589Z,20.07
2022-09-04T00:24:05.225Z,20.04
2022-09-04T00:26:12.905Z,20.02
2022-09-04T00:28:27.377Z,20.00
2022-09-04T00:30:29.175Z,19.99
2022-09-04T00:32:51.906Z,19.95
2022-09-04T00:35:17.572Z,19.96
2022-09-04T00:37:23.218Z,19.92
2022-09-04T00:39:41.381Z,19.91
2022-09-04T00:42:09.900Z,19.89
2022-09-04T00:44:35.371Z,19.87
2022-09-04T00:46:44.573Z,19.87
2022-09-04T00:49:14.414Z,19.84
2022-09-04T00:51:19.565Z,19.82
2022-09-04T00:53:51.175Z,19.79
2022-09-04T00:56:15.435Z,19.78
2022-09-04T00:58:52.684Z,19.76
2022-09-04T01:01:02.256Z,19.73
2022-09-04T01:03:35.379Z,19.71
2022-09-04T01:06:37.745Z,19.68
2022-09-04T01:09:24.949Z,19.66
2022-09-04T01:11:33.253Z,19.62
2022-09-04T01:13:42.293Z,19.61
2022-09-04T01:15:59.424Z,19.59
2022-09-04T01:18:30.788Z,19.59
2022-09-04T01:20:51.108Z,19.60
2022-09-04T01:23:13.013Z,19.58
2022-09-04T01:25:20.840Z,19.57
2022-09-04T01:27:39.726Z,19.58
2022-09-04T01:30:05.826Z,19.57
2022-09-04T01:32:26.041Z,19.56
2022-09-04T01:35:05.576Z,19.56
2022-09-04T01:37:30.662Z,19.57
2022-09-04T01:39:36.527Z,19.58
2022-09-04T01:41:49.074Z,19.59
2022-09-04T01:43:52.028Z,19.61
2022-09-04T01:46:05.058Z,19.61
2022-09-04T01:48:08.253Z,19.61
2022-09-04T01:50:27.891Z,19.58
2022-09-04T01:52:59.128Z,19.55
2022-09-04T01:55:47.640Z,19.52
2022-09-04T01:58:00.601Z,19.53
2022-09-04T02:00:13.768Z,19.52
2022-09-04T02:02:34.518Z,19.49
2022-09-04T02:04:59.762Z,19.49
2022-09-04T02:07:29.152Z,19.49
2022-09-04T02:09:44.534Z,19.49
2022-09-04T02:11:57.171Z,19.51
2022-09-04T02:14:22.301Z,19.49
2022-09-04T02:16:33.679Z,19.51
2022-09-04T02:18:50.361Z,19.53
2022-09-04T02:21:08.051Z,19.52
2022-09-04T02:23:22.005Z,19.53
2022-09-04T02:25:48.025Z,19.52
2022-09-04T02:27:56.221Z,19.54
2022-09-04T02:30:15.896Z,19.54
2022-09-04T02:32:27.150Z,19.54
2022-09-04T02:34:53.764Z,19.55
2022-09-04T02:37:19.583Z,19.55
2022-09-04T02:39:32.598Z,19.57
2022-09-04T02:41:58.182Z,19.57
2022-09-04T02:44:18.709Z,19.59
2022-09-04T02:46:43.285Z,19.59
2022-09-04T02:48:47.935Z,19.61
2022-09-04T02:51:13.975Z,19.60
2022-09-04T02:53:40.108Z,19.60
2022-09-04T02:56:19.111Z,19.61
2022-09-04T02:58:52.827Z,19.61
2022-09-04T03:01:30.929Z,19.62
2022-09-04T03:04:21.250Z,19.62
2022-09-04T03:06:52.265Z,19.61
2022-09-04T03:09:06.242Z,19.63
2022-09-04T03:11:19.314Z,19.62
2022-09-04T03:13:32.353Z,19.63
2022-09-04T03:15:56.666Z,19.63
2022-09-04T03:18:16.817Z,19.63
2022-09-04T03:20:25.244Z,19.66
2022-09-04T03:22:36.334Z,19.67
2022-09-04T03:24:49.963Z,19.66
2022-09-04T03:26:59.909Z,19.68
2022-09-04T03:29:25.275Z,19.68
2022-09-04T03:31:51.619Z,19.67
2022-09-04T03:34:12.166Z,19.67
2022-09-04T03:36:34.755Z,19.70
2022-09-04T03:39:04.556Z,19.70
2022-09-04T03:41:18.144Z,19.71
2022-09-04T03:43:31.887Z,19.71
2022-09-04T03:46:07.445Z,19.71
2022-09-04T03:48:30.079Z,19.71
2022-09-04T03:51:10.092Z,19.67
2022-09-04T03:53:36.424Z,19.67
2022-09-04T03:56:15.234Z,19.67
2022-09-04T03:58:43.696Z,19.67
2022-09-04T04:01:06.482Z,19.67
2022-09-04T04:03:55.899Z,19.66
2022-09-04T04:06:16.939Z,19.65
2022-09-04T04:08:46.662Z,19.62
2022-09-04T04:11:24.188Z,19.66
2022-09-04T04:13:47.093Z,19.66
2022-09-04T04:16:00.132Z,19.66
2022-09-04T04:18:17.048Z,19.67
2022-09-04T04:20:36.692Z,19.66
2022-09-04T04:22:56.522Z,19.63
2022-09-04T04:25:25.342Z,19.64
2022-09-04T04:27:46.182Z,19.64
2022-09-04T04:30:05.170Z,19.62
2022-09-04T04:32:20.762Z,19.63
2022-09-04T04:34:34.652Z,19.63
2022-09-04T04:36:48.412Z,19.63
2022-09-04T04:39:07.726Z,19.62
2022-09-04T04:42:05.596Z,19.59
2022-09-04T04:44:16.233Z,19.57
2022-09-04T04:46:55.481Z,19.56
2022-09-04T04:49:28.531Z,19.53
2022-09-04T04:51:47.073Z,19.54
2022-09-04T04:54:28.710Z,19.52
2022-09-04T04:57:09.047Z,19.48
2022-09-04T04:59:31.100Z,19.49
2022-09-04T05:01:50.787Z,19.50
2022-09-04T05:04:34.098Z,19.48
2022-09-04T05:06:47.744Z,19.46
2022-09-04T05:09:09.208Z,19.44
2022-09-04T05:11:26.602Z,19.42
2022-09-04T05:13:53.681Z,19.40
2022-09-04T05:16:18.108Z,19.36
2022-09-04T05:18:42.734Z,19.32
2022-09-04T05:20:53.954Z,19.31
2022-09-04T05:23:13.731Z,19.28
2022-09-04T05:25:47.260Z,19.25
2022-09-04T05:28:25.405Z,19.21
2022-09-04T05:30:38.087Z,19.18
2022-09-04T05:32:53.697Z,19.16
2022-09-04T05:35:15.650Z,19.15
2022-09-04T05:37:27.771Z,19.12
2022-09-04T05:39:41.450Z,19.12
2022-09-04T05:42:06.789Z,19.11
2022-09-04T05:44:22.378Z,19.11
2022-09-04T05:46:36.174Z,19.09
2022-09-04T05:49:18.006Z,19.09
2022-09-04T05:51:46.984Z,19.08
2022-09-04T05:54:14.440Z,19.08
2022-09-04T05:56:47.287Z,19.09
2022-09-04T05:59:01.347Z,19.09
2022-09-04T06:01:23.610Z,19.10
2022-09-04T06:03:44.374Z,19.12
2022-09-04T06:06:07.573Z,19.13
2022-09-04T06:08:43.311Z,19.15
2022-09-04T06:10:50.001Z,19.18
2022-09-04T06:13:29.061Z,19.22
2022-09-04T06:15:44.250Z,19.29
2022-09-04T06:18:03.828Z,19.39
2022-09-04T06:20:16.354Z,19.52
2022-09-04T06:22:48.593Z,19.70
2022-09-04T06:25:15.634Z,19.90
2022-09-04T06:27:51.462Z,20.09
2022-09-04T06:30:09.373Z,20.30
2022-09-04T06:32:34.328Z,20.48
2022-09-04T06:35:00.801Z,20.67
2022-09-04T06:37:09.330Z,20.86
2022-09-04T06:39:26.066Z,21.05
2022-09-04T06:41:46.998Z,21.22
2022-09-04T06:44:13.438Z,21.40
2022-09-04T06:46:24.973Z,21.59
2022-09-04T06:48:42.134Z,21.75
2022-09-04T06:50:56.805Z,21.89
2022-09-04T06:53:21.497Z,22.05
2022-09-04T06:55:30.851Z,22.16
2022-09-04T06:57:46.783Z,22.28
2022-09-04T07:00:10.110Z,22.39
2022-09-04T07:02:33.377Z,22.48
2022-09-04T07:04:44.629Z,22.61
2022-09-04T07:07:18.606Z,22.70
2022-09-04T07:09:27.793Z,22.83
2022-09-04T07:11:44.597Z,22.95
2022-09-04T07:13:56.190Z,23.06
2022-09-04T07:15:57.676Z,23.15
2022-09-04T07:18:26.486Z,23.26
2022-09-04T07:20:56.343Z,23.36
2022-09-04T07:23:32.203Z,23.48
2022-09-04T07:25:43.948Z,23.58
2022-09-04T07:27:55.753Z,23.68
2022-09-04T07:30:05.175Z,23.77
2022-09-04T07:32:22.920Z,23.85
2022-09-04T07:34:46.801Z,23.94
2022-09-04T07:36:55.698Z,24.05
2022-09-04T07:39:11.835Z,24.14
2022-09-04T07:41:25.659Z,24.25
2022-09-04T07:43:42.600Z,24.36
2022-09-04T07:45:57.841Z,24.49
2022-09-04T07:48:16.959Z,24.62
2022-09-04T07:50:22.259Z,24.73
2022-09-04T07:52:44.638Z,24.85
2022-09-04T07:55:07.345Z,24.99
2022-09-04T07:57:26.410Z,25.11
2022-09-04T07:59:47.256Z,25.20
2022-09-04T08:02:04.131Z,25.29
2022-09-04T08:04:11.610Z,25.36
2022-09-04T08:06:35.597Z,25.41
2022-09-04T08:08:46.248Z,25.43
2022-09-04T08:11:14.535Z,25.49
2022-09-04T08:13:27.675Z,25.57
2022-09-04T08:15:46.156Z,25.62
2022-09-04T08:18:12.855Z,25.67
2022-09-04T08:20:45.264Z,25.71
2022-09-04T08:23:02.087Z,25.72
2022-09-04T08:25:16.983Z,25.74
2022-09-04T08:27:57.015Z,25.81
2022-09-04T08:30:06.326Z,25.93
2022-09-04T08:32:16.577Z,26.03
2022-09-04T08:34:57.779Z,26.13
2022-09-04T08:37:20.913Z,26.27
2022-09-04T08:39:34.642Z,26.39
2022-09-04T08:41:51.553Z,26.48
2022-09-04T08:44:28.717Z,26.61
2022-09-04T08:46:52.899Z,26.76
2022-09-04T08:49:11.746Z,26.93
2022-09-04T08:51:47.470Z,27.08
2022-09-04T08:54:19.175Z,27.25
2022-09-04T08:56:56.737Z,27.42
2022-09-04T08:59:29.390Z,27.60
2022-09-04T09:01:51.412Z,27.79
2022-09-04T09:04:43.984Z,27.96
2022-09-04T09:07:13.685Z,28.15
2022-09-04T09:09:21.163Z,28.30
2022-09-04T09:11:41.496Z,28.46
2022-09-04T09:14:07.412Z,28.62
2022-09-04T09:16:42.947Z,28.78
2022-09-04T09:19:06.296Z,28.94
2022-09-04T09:21:31.118Z,29.12
2022-09-04T09:23:54.961Z,29.28
2022-09-04T09:26:20.184Z,29.43
2022-09-04T09:28:58.830Z,29.61
2022-09-04T09:31:28.801Z,29.77
2022-09-04T09:33:49.571Z,29.92
2022-09-04T09:36:21.657Z,30.06
2022-09-04T09:38:41.754Z,30.21
2022-09-04T09:40:56.084Z,30.32
2022-09-04T09:43:20.750Z,30.45
2022-09-04T09:45:46.092Z,30.59
2022-09-04T09:48:15.949Z,30.73
2022-09-04T09:50:27.927Z,30.89
2022-09-04T09:53:07.027Z,31.02
2022-09-04T09:55:29.265Z,31.16
2022-09-04T09:57:46.881Z,31.28
2022-09-04T10:00:10.594Z,31.40
2022-09-04T10:02:38.196Z,31.50
2022-09-04T10:05:11.138Z,31.64
2022-09-04T10:07:19.763Z,31.75
2022-09-04T10:09:27.955Z,31.87
2022-09-04T10:11:36.703Z,31.97
2022-09-04T10:14:08.188Z,32.06
2022-09-04T10:16:24.126Z,32.17
2022-09-04T10:18:37.785Z,32.30
2022-09-04T10:21:20.890Z,32.42
2022-09-04T10:23:47.273Z,32.54
2022-09-04T10:26:09.926Z,32.64
2022-09-04T10:28:51.031Z,32.73
2022-09-04T10:31:02.625Z,32.86
2022-09-04T10:33:34.019Z,32.93
2022-09-04T10:35:54.622Z,33.04
2022-09-04T10:38:15.887Z,33.13
2022-09-04T10:40:43.379Z,33.23
2022-09-04T10:43:13.979Z,33.33
2022-09-04T10:45:35.872Z,33.40
2022-09-04T10:48:02.232Z,33.47
2022-09-04T10:50:31.078Z,33.55
2022-09-04T10:53:02.778Z,33.61
2022-09-04T10:55:22.837Z,33.68
2022-09-04T10:57:59.841Z,33.77
2022-09-04T11:00:01.588Z,33.87
2022-09-04T11:02:41.112Z,33.95
2022-09-04T11:05:20.385Z,34.01
2022-09-04T11:07:29.890Z,34.10
2022-09-04T11:09:53.175Z,34.17
2022-09-04T11:12:46.482Z,34.22
2022-09-04T11:15:09.392Z,34.29
2022-09-04T11:17:52.981Z,34.35
2022-09-04T11:20:34.042Z,34.41
2022-09-04T11:22:47.755Z,34.48
2022-09-04T11:25:10.851Z,34.54
2022-09-04T11:28:10.659Z,34.62
2022-09-04T11:30:31.824Z,34.67
2022-09-04T11:32:39.461Z,34.72
2022-09-04T11:35:28.578Z,34.76
2022-09-04T11:37:45.273Z,34.83
2022-09-04T11:39:52.735Z,34.89
2022-09-04T11:42:20.430Z,34.92
2022-09-04T11:44:37.322Z,34.94
2022-09-04T11:47:16.990Z,34.98
2022-09-04T11:49:49.582Z,35.02
2022-09-04T11:52:14.882Z,35.05
2022-09-04T11:54:29.209Z,35.07
2022-09-04T11:56:50.869Z,35.11
2022-09-04T11:59:04.999Z,35.13
2022-09-04T12:01:18.600Z,35.16
2022-09-04T12:03:49.575Z,35.19
2022-09-04T12:06:15.364Z,35.19
2022-09-04T12:08:25.774Z,35.17
2022-09-04T12:10:52.460Z,35.16
2022-09-04T12:13:14.558Z,35.13
2022-09-04T12:15:46.734Z,35.14
2022-09-04T12:18:08.635Z,35.13
2022-09-04T12:20:28.415Z,35.15
2022-09-04T12:23:04.550Z,35.18
2022-09-04T12:25:43.793Z,35.20
2022-09-04T12:28:01.301Z,35.24
2022-09-04T12:30:14.392Z,35.27
2022-09-04T12:32:37.862Z,35.30
2022-09-04T12:34:56.516Z,35.33
2022-09-04T12:37:22.133Z,35.33
2022-09-04T12:39:43.033Z,35.32
2022-09-04T12:42:11.055Z,35.29
2022-09-04T12:44:38.049Z,35.21
2022-09-04T12:46:55.853Z,35.17
2022-09-04T12:49:28.672Z,35.10
2022-09-04T12:52:00.426Z,35.06
2022-09-04T12:54:45.355Z,35.05
2022-09-04T12:56:57.149Z,35.06
2022-09-04T12:59:32.527Z,35.05
2022-09-04T13:02:16.863Z,35.03
2022-09-04T13:04:31.595Z,35.02
2022-09-04T13:07:15.971Z,35.01
2022-09-04T13:09:35.154Z,35.01
2022-09-04T13:12:13.746Z,34.99
2022-09-04T13:14:49.533Z,34.98
2022-09-04T13:17:06.301Z,35.02
2022-09-04T13:19:50.710Z,35.04
2022-09-04T13:22:08.851Z,35.05
2022-09-04T13:24:36.457Z,35.08
2022-09-04T13:26:55.325Z,35.12
2022-09-04T13:29:16.994Z,35.12
2022-09-04T13:31:33.545Z,35.14
2022-09-04T13:34:04.320Z,35.17
2022-09-04T13:36:16.595Z,35.18
2022-09-04T13:38:36.072Z,35.20
2022-09-04T13:41:38.671Z,35.21
2022-09-04T13:44:18.645Z,35.25
2022-09-04T13:46:35.588Z,35.26
2022-09-04T13:48:52.065Z,35.26
2022-09-04T13:51:01.818Z,35.26
2022-09-04T13:53:34.719Z,35.24
2022-09-04T13:55:55.550Z,35.24
2022-09-04T13:58:21.367Z,35.18
2022-09-04T14:00:28.611Z,35.12
2022-09-04T14:02:35.072Z,35.03
2022-09-04T14:04:52.800Z,34.92
2022-09-04T14:07:10.823Z,34.83
2022-09-04T14:09:15.300Z,34.76
2022-09-04T14:11:25.508Z,34.70
2022-09-04T14:13:44.754Z,34.64
2022-09-04T14:16:06.812Z,34.59
2022-09-04T14:18:29.087Z,34.56
2022-09-04T14:21:01.363Z,34.49
2022-09-04T14:23:12.528Z,34.46
2022-09-04T14:25:15.862Z,34.41
2022-09-04T14:27:31.580Z,34.34
2022-09-04T14:30:06.123Z,34.25
2022-09-04T14:32:20.398Z,34.18
2022-09-04T14:34:35.889Z,34.10
2022-09-04T14:36:40.132Z,34.07
2022-09-04T14:39:06.649Z,33.98
2022-09-04T14:41:34.068Z,33.93
2022-09-04T14:44:07.542Z,33.82
2022-09-04T14:46:31.794Z,33.78
2022-09-04T14:48:40.707Z,33.78
2022-09-04T14:50:52.092Z,33.73
2022-09-04T14:53:06.519Z,33.68
2022-09-04T14:55:16.261Z,33.64
2022-09-04T14:57:29.164Z,33.58
2022-09-04T14:59:45.169Z,33.51
2022-09-04T15:02:02.946Z,33.46
2022-09-04T15:04:18.906Z,33.39
2022-09-04T15:06:30.231Z,33.35
2022-09-04T15:08:40.535Z,33.30
2022-09-04T15:10:53.759Z,33.21
2022-09-04T15:13:30.579Z,33.15
2022-09-04T15:15:39.604Z,33.07
2022-09-04T15:17:54.699Z,33.03
2022-09-04T15:19:59.879Z,32.99
2022-09-04T15:22:26.989Z,32.92
2022-09-04T15:24:43.750Z,32.86
2022-09-04T15:26:55.797Z,32.78
2022-09-04T15:29:27.401Z,32.71
2022-09-04T15:31:33.680Z,32.64
2022-09-04T15:33:42.778Z,32.57
2022-09-04T15:35:56.683Z,32.52
2022-09-04T15:38:30.374Z,32.43
2022-09-04T15:40:38.495Z,32.38
2022-09-04T15:42:49.969Z,32.31
2022-09-04T15:44:51.812Z,32.24
2022-09-04T15:47:23.247Z,32.16
2022-09-04T15:49:53.743Z,32.08
2022-09-04T15:52:03.288Z,31.98
2022-09-04T15:54:10.949Z,31.91
2022-09-04T15:56:25.185Z,31.84
2022-09-04T15:58:33.573Z,31.78
2022-09-04T16:01:00.065Z,31.70
2022-09-04T16:03:22.307Z,31.58
2022-09-04T16:05:36.036Z,31.53
2022-09-04T16:07:46.571Z,31.45
2022-09-04T16:10:01.190Z,31.37
2022-09-04T16:12:20.690Z,31.26
2022-09-04T16:14:45.250Z,31.21
2022-09-04T16:16:53.052Z,31.10
2022-09-04T16:19:05.058Z,31.04
2022-09-04T16:21:21.290Z,30.95
2022-09-04T16:23:38.328Z,30.86
2022-09-04T16:25:51.718Z,30.78
2022-09-04T16:28:03.926Z,30.74
2022-09-04T16:30:09.090Z,30.67
2022-09-04T16:32:18.333Z,30.63
2022-09-04T16:34:39.659Z,30.56
2022-09-04T16:36:46.108Z,30.53
2022-09-04T16:39:00.573Z,30.49
2022-09-04T16:41:11.859Z,30.48
2022-09-04T16:43:33.076Z,30.47
2022-09-04T16:46:10.121Z,30.40
2022-09-04T16:48:34.617Z,30.38
2022-09-04T16:50:51.899Z,30.36
2022-09-04T16:53:12.634Z,30.31
2022-09-04T16:55:27.152Z,30.29
2022-09-04T16:57:54.619Z,30.23
2022-09-04T17:00:09.579Z,30.19
2022-09-04T17:02:24.120Z,30.16
2022-09-04T17:05:03.957Z,30.11
2022-09-04T17:07:08.865Z,30.06
2022-09-04T17:09:42.248Z,30.04
2022-09-04T17:11:55.328Z,29.98
2022-09-04T17:14:15.315Z,29.96
2022-09-04T17:16:22.313Z,29.92
2022-09-04T17:18:28.353Z,29.87
2022-09-04T17:21:17.514Z,29.81
2022-09-04T17:28:59.006Z,29.74
2022-09-04T17:29:09.208Z,29.70
2022-09-04T17:29:09.931Z,29.67
2022-09-04T17:30:46.981Z,29.60
2022-09-04T17:38:51.035Z,29.54
2022-09-04T17:40:46.472Z,29.46
2022-09-04T17:40:48.436Z,29.37
2022-09-04T17:41:39.957Z,29.34
2022-09-04T17:44:03.532Z,29.24
2022-09-04T17:46:20.798Z,29.21
2022-09-04T17:48:37.900Z,29.18
2022-09-04T17:50:52.495Z,29.10
2022-09-04T17:53:08.150Z,29.03
2022-09-04T17:55:16.673Z,28.98
2022-09-04T17:57:53.491Z,28.89
2022-09-04T18:00:06.750Z,28.86
2022-09-04T18:02:28.665Z,28.77
2022-09-04T18:04:34.904Z,28.71
2022-09-04T18:06:45.491Z,28.68
2022-09-04T18:08:57.294Z,28.63
2022-09-04T18:11:08.042Z,28.57
2022-09-04T18:13:41.867Z,28.49
2022-09-04T18:16:18.638Z,28.41
2022-09-04T18:18:43.868Z,28.32
2022-09-04T18:21:26.867Z,28.24
2022-09-04T18:23:51.516Z,28.15
2022-09-04T18:26:40.615Z,28.08
2022-09-04T18:28:55.427Z,28.01
2022-09-04T18:37:06.172Z,27.93
2022-09-04T18:37:15.980Z,27.73
2022-09-04T18:37:25.656Z,27.84
2022-09-04T18:38:51.922Z,27.66
2022-09-04T18:43:34.598Z,27.56
2022-09-04T18:50:25.371Z,27.48
2022-09-04T18:50:32.731Z,27.32
2022-09-04T18:50:50.179Z,27.39
2022-09-04T18:51:38.453Z,27.25
2022-09-04T18:53:50.107Z,27.21
2022-09-04T18:56:06.206Z,27.14
2022-09-04T18:58:23.691Z,27.07
2022-09-04T19:00:48.641Z,27.01
2022-09-04T19:03:04.640Z,26.95
2022-09-04T19:05:14.070Z,26.87
2022-09-04T19:07:29.992Z,26.80
2022-09-04T19:09:55.662Z,26.74
2022-09-04T19:12:08.591Z,26.66
2022-09-04T19:14:15.515Z,26.60
2022-09-04T19:16:31.782Z,26.54
2022-09-04T19:21:14.373Z,26.42
2022-09-04T19:23:32.485Z,26.34
2022-09-04T19:25:40.463Z,26.29
2022-09-04T19:28:06.845Z,26.24
2022-09-04T19:30:25.274Z,26.14
2022-09-04T19:32:39.743Z,26.07
2022-09-04T19:34:47.344Z,26.02
2022-09-04T19:36:59.100Z,25.97
2022-09-04T19:45:54.732Z,25.89
2022-09-04T19:45:59.170Z,25.80
2022-09-04T19:46:16.320Z,25.75
2022-09-04T19:47:31.400Z,25.66
2022-09-04T19:52:23.711Z,25.59
2022-09-04T19:53:31.034Z,25.53
2022-09-04T19:54:44.796Z,25.47
2022-09-04T19:57:33.315Z,25.40
2022-09-04T19:59:45.538Z,25.31
2022-09-04T20:01:52.146Z,25.25
2022-09-04T20:04:12.529Z,25.20
2022-09-04T20:06:21.470Z,25.14
2022-09-04T20:08:31.171Z,25.09
2022-09-04T20:10:45.363Z,25.02
2022-09-04T20:12:53.466Z,24.99
2022-09-04T20:15:12.655Z,24.91
2022-09-04T20:17:39.053Z,24.84
2022-09-04T20:19:51.596Z,24.79
2022-09-04T20:22:05.643Z,24.72
2022-09-04T20:24:15.971Z,24.67
2022-09-04T20:26:30.968Z,24.60
2022-09-04T20:28:54.640Z,24.56
2022-09-04T20:31:35.505Z,24.48
2022-09-04T20:33:40.701Z,24.43
2022-09-04T20:35:59.921Z,24.40
2022-09-04T20:38:23.317Z,24.32
2022-09-04T20:40:35.205Z,24.29
2022-09-04T20:42:44.530Z,24.24
2022-09-04T20:52:37.614Z,24.19
2022-09-04T20:52:45.422Z,24.14
2022-09-04T20:52:49.564Z,24.03
2022-09-04T20:53:05.371Z,24.08
2022-09-04T20:54:56.708Z,23.97
2022-09-04T21:00:53.365Z,23.96
2022-09-04T21:03:13.906Z,23.90
2022-09-04T21:03:17.385Z,23.85
2022-09-04T21:05:02.044Z,23.80
2022-09-04T21:07:33.200Z,23.77
2022-09-04T21:10:09.567Z,23.71
2022-09-04T21:12:42.615Z,23.66
2022-09-04T21:14:50.924Z,23.65
2022-09-04T21:17:33.858Z,23.62
2022-09-04T21:19:58.677Z,23.55
2022-09-04T21:22:32.670Z,23.52
2022-09-04T21:24:40.915Z,23.49
2022-09-04T21:27:00.312Z,23.46
2022-09-04T21:29:32.146Z,23.42
2022-09-04T21:32:11.293Z,23.35
2022-09-04T21:34:44.478Z,23.32
2022-09-04T21:36:59.482Z,23.28
2022-09-04T21:39:28.672Z,23.24
2022-09-04T21:41:45.512Z,23.20
2022-09-04T21:44:21.567Z,23.18
2022-09-04T21:46:35.606Z,23.17
2022-09-04T21:48:57.414Z,23.11
2022-09-04T21:51:28.387Z,23.07
2022-09-04T21:53:55.172Z,23.04
2022-09-04T22:00:16.096Z,22.98
2022-09-04T22:02:42.627Z,22.93
2022-09-04T22:02:44.603Z,22.90
2022-09-04T22:04:44.433Z,22.87
2022-09-04T22:13:04.504Z,22.84
2022-09-04T22:13:31.879Z,22.80
2022-09-04T22:13:40.088Z,22.75
2022-09-04T22:15:02.772Z,22.73
2022-09-04T22:17:14.980Z,22.71
2022-09-04T22:19:19.176Z,22.69
2022-09-04T22:21:44.302Z,22.65
2022-09-04T22:24:00.868Z,22.65
2022-09-04T22:26:24.641Z,22.61
2022-09-04T22:28:52.063Z,22.57
2022-09-04T22:31:29.198Z,22.55
2022-09-04T22:34:15.650Z,22.50
2022-09-04T22:36:40.735Z,22.48
2022-09-04T22:38:53.609Z,22.44
2022-09-04T22:41:24.659Z,22.43
2022-09-04T22:43:28.636Z,22.41
2022-09-04T22:46:03.213Z,22.36
2022-09-04T22:48:35.627Z,22.34
2022-09-04T22:50:54.516Z,22.28
2022-09-04T22:53:18.933Z,22.27
2022-09-04T22:56:23.497Z,22.22
2022-09-04T22:58:50.825Z,22.17
2022-09-04T23:01:18.518Z,22.13
2022-09-04T23:03:49.841Z,22.10
2022-09-04T23:12:37.589Z,22.07
2022-09-04T23:13:42.211Z,22.03
2022-09-04T23:13:47.725Z,22.00
2022-09-04T23:15:08.813Z,21.96
2022-09-04T23:17:42.024Z,21.93
2022-09-04T23:26:30.969Z,21.90
2022-09-04T23:26:47.716Z,21.87
2022-09-04T23:26:54.236Z,21.88
2022-09-04T23:28:08.719Z,21.84
2022-09-04T23:30:31.408Z,21.83
2022-09-04T23:33:10.364Z,21.79
2022-09-04T23:35:24.804Z,21.78
2022-09-04T23:38:20.852Z,21.76
2022-09-04T23:40:53.563Z,21.71
2022-09-04T23:43:13.783Z,21.69
2022-09-04T23:45:27.332Z,21.68
2022-09-04T23:47:47.823Z,21.65
2022-09-04T23:50:02.053Z,21.64
2022-09-04T23:52:48.727Z,21.59
2022-09-04T23:55:07.901Z,21.57
2022-09-04T23:57:26.520Z,21.54
2022-09-04T23:59:47.911Z,21.52
